Skip to main content

NOAA/GLERL Met Station at Chicago, IL

Previous 3 Hours (2 minute increments)
See also Previous 5 Days (top of hour)
Jump down to Data
Switch to [English][Metric]
Zoom: Click and drag, Pan: shift-click and drag, Unzoom: double-click, Unzoom All




See also 1-day windrose plot


NOAA/GLERL Met Station at Chicago, IL

Previous 3 Hours (2 minute increments)
See also Previous 5 Days (top of hour only)
Jump up to Graphs
Switch to [English][Metric]
                  Wind  Wind  Wind   Air   Dew   Rel
                   Spd   Gst   Dir  Temp    Pt   Hum
YYYY-MM-DD   CDT   kts   kts   deg     F     F     %
2018-05-26 06:36  10.7  11.7   234  70.5  63.2  77.4
2018-05-26 06:34  10.5  12.8   243  70.9  63.1  76.2
2018-05-26 06:32  10.9  12.2   237  71.4  63.1  74.7
2018-05-26 06:30  11.7  13.0   238  71.2  63.0  74.8
2018-05-26 06:28  11.1  12.1   234  71.1  62.9  75.0
2018-05-26 06:26  12.2  13.2   235  71.1  63.0  75.2
2018-05-26 06:24  12.6  14.0   238  71.8  63.4  74.5
2018-05-26 06:22  12.8  14.6   240  72.1  63.7  74.5
2018-05-26 06:20  13.8  15.6   243  71.6  63.4  75.0
2018-05-26 06:18  13.4  14.8   243  71.8  63.6  75.0
2018-05-26 06:16  13.6  16.7   242  71.8  63.5  74.8
2018-05-26 06:14  13.6  16.3   243  70.9  63.4  77.0
2018-05-26 06:12  13.0  16.1   245  70.7  63.6  77.9
2018-05-26 06:10  13.2  14.2   239  70.5  64.4  80.7
2018-05-26 06:08  10.5  12.8   241  69.6  63.7  81.3
2018-05-26 06:06  11.7  13.6   241  70.3  64.2  80.5
2018-05-26 06:04  12.1  13.8   240  70.3  64.4  81.3
2018-05-26 06:02  12.6  14.0   232  70.3  64.4  81.2
2018-05-26 06:00  13.6  14.6   230  70.0  64.7  83.0
2018-05-26 05:58  11.5  12.8   227  69.8  64.7  83.5
2018-05-26 05:56  11.9  12.8   223  70.5  65.9  85.2
2018-05-26 05:54  11.7  13.0   217  70.5  66.7  87.4
2018-05-26 05:52  13.2  14.8   217  70.2  66.6  88.2
2018-05-26 05:50  14.2  15.6   209  70.3  67.1  89.3
2018-05-26 05:48  14.2  14.8   209  70.0  66.9  89.7
2018-05-26 05:46  14.0  15.4   209  70.5  67.1  88.6
2018-05-26 05:44  13.6  14.4   210  70.2  66.9  89.2
2018-05-26 05:42  13.8  14.2   212  70.3  67.1  89.3
2018-05-26 05:40  13.8  14.6   212  70.5  67.2  89.0
2018-05-26 05:38  13.6  14.6   211  70.3  67.2  89.6
2018-05-26 05:36  13.6  14.4   209  70.3  67.3  89.9
2018-05-26 05:34  13.0  13.8   207  70.0  66.9  89.8
2018-05-26 05:32  11.5  12.8   208  69.6  66.4  89.3
2018-05-26 05:30   9.9  11.3   209  69.3  66.0  89.2
2018-05-26 05:28   9.3  11.9   206  68.0  64.9  89.6
2018-05-26 05:26   8.0   8.6   210  67.8  64.6  89.3
2018-05-26 05:24   9.1  10.3   216  68.0  64.2  87.6
2018-05-26 05:22   8.7   9.9   215  68.4  65.0  88.7
2018-05-26 05:20   7.0   8.7   213  67.8  64.4  88.7
2018-05-26 05:18   6.2   7.0   216  68.2  64.2  87.0
2018-05-26 05:16   7.8  10.3   219  68.9  65.1  87.4
2018-05-26 05:14   8.0   9.1   214  68.9  65.3  88.2
2018-05-26 05:12   8.2   9.7   217  69.6  65.5  86.6
2018-05-26 05:10   9.9  10.5   221  70.2  65.8  85.7
2018-05-26 05:08   9.9  11.1   215  70.5  66.7  87.4
2018-05-26 05:06  10.5  11.9   212  70.5  66.7  87.4
2018-05-26 05:04   9.9  12.4   211  70.3  66.4  87.0
2018-05-26 05:02   9.5  11.3   208  69.8  66.1  87.8
2018-05-26 05:00   9.7  11.1   217  69.3  65.2  86.8
2018-05-26 04:58   8.7  10.1   221  70.0  65.6  85.9
2018-05-26 04:56   9.1  10.7   224  70.5  66.6  87.3
2018-05-26 04:54  10.3  12.6   216  70.9  67.0  87.4
2018-05-26 04:52  11.9  12.8   216  70.5  67.3  89.3
2018-05-26 04:50  12.2  15.2   214  70.2  67.0  89.4
2018-05-26 04:48  13.6  15.0   209  70.2  67.4  90.9
2018-05-26 04:46  14.6  15.4   207  69.6  67.0  91.1
2018-05-26 04:44  14.4  15.9   208  69.6  66.9  90.9
2018-05-26 04:42  14.4  15.7   207  69.8  67.2  91.2
2018-05-26 04:40  13.4  15.0   206  69.3  66.7  91.4
2018-05-26 04:38  12.1  13.6   204  69.8  66.9  90.2
2018-05-26 04:36  14.8  15.9   204  69.4  67.3  92.7
2018-05-26 04:34  13.0  14.6   200  68.2  66.0  92.6
2018-05-26 04:32  11.9  13.2   201  68.5  65.7  90.5
2018-05-26 04:30  12.8  13.8   204  68.7  66.4  92.1
2018-05-26 04:28  11.1  13.8   208  68.7  65.9  90.6
2018-05-26 04:26  12.2  13.4   209  68.9  66.2  91.1
2018-05-26 04:24  12.4  13.8   210  69.3  66.4  90.6
2018-05-26 04:22  12.6  16.1   210  68.9  66.3  91.3
2018-05-26 04:20  12.4  13.2   208  68.7  65.9  90.7
2018-05-26 04:18  13.0  13.6   208  69.3  66.5  90.9
2018-05-26 04:16  12.1  14.0   204  68.2  65.7  91.5
2018-05-26 04:14  11.5  12.6   206  68.4  65.7  91.0
2018-05-26 04:12  10.9  12.1   201  68.2  65.6  91.2
2018-05-26 04:10  10.5  11.7   202  68.5  65.9  91.0
2018-05-26 04:08  10.3  11.7   198  68.5  65.8  90.7
2018-05-26 04:06  11.7  13.0   190  68.7  65.9  90.7
2018-05-26 04:04  10.5  11.7   194  68.9  66.1  90.6
2018-05-26 04:02   9.5  10.7   205  68.7  66.1  91.1
2018-05-26 04:00   9.3  10.3   200  68.9  66.2  91.0
2018-05-26 03:58   9.3  10.5   201  69.6  66.7  90.3
2018-05-26 03:56  10.9  11.9   200  69.8  66.9  90.2
2018-05-26 03:54  10.7  11.7   201  70.2  67.3  90.5
2018-05-26 03:52   9.9  11.3   204  70.2  67.2  90.2
2018-05-26 03:50  10.9  11.9   197  70.7  67.6  89.6
2018-05-26 03:48  11.9  12.6   187  71.1  67.9  89.6
2018-05-26 03:46  12.1  12.6   186  71.2  67.9  89.0
2018-05-26 03:44  12.2  13.0   186  71.4  68.0  88.8
2018-05-26 03:42  12.4  13.2   188  71.4  68.0  88.7
2018-05-26 03:40  11.7  12.2   190  71.4  68.1  89.1
2018-05-26 03:38  11.1  12.1   192  71.4  68.1  89.1
2018-05-26 03:36  11.3  12.1   192  71.4  68.2  89.3